Time;durP1;ratioP1;P1;durP2;ratioP2;P2;SDS_P1;SDS_P2;PMS_P1;PMS_P2;Temp;Humidity;BMP_temperature;BMP_pressure;BME280_temperature;BME280_humidity;BME280_pressure;Samples;Min_cycle;Max_cycle;Signal;HPM_P1;HPM_P2
2023/10/28 00:01:00;;;;;;;1.63;1.20;;;12.70;90.50;;;;;;5016281;28;20440;-49
2023/10/28 00:03:29;;;;;;;1.40;0.90;;;12.70;90.40;;;;;;5023666;28;20829;-49
2023/10/28 00:05:58;;;;;;;6.00;1.33;;;12.70;90.20;;;;;;5016832;28;20463;-49
2023/10/28 00:08:26;;;;;;;1.70;1.30;;;12.70;90.30;;;;;;5021991;28;20475;-49
2023/10/28 00:10:55;;;;;;;1.40;0.80;;;12.80;90.40;;;;;;5014765;28;20444;-49
2023/10/28 00:13:23;;;;;;;1.73;0.80;;;12.80;90.30;;;;;;5022947;28;20529;-50
2023/10/28 00:15:52;;;;;;;2.13;1.10;;;12.70;90.30;;;;;;5012045;28;20510;-50
2023/10/28 00:18:20;;;;;;;1.57;1.10;;;12.70;90.40;;;;;;5002551;28;20471;-50
2023/10/28 00:20:50;;;;;;;2.13;0.90;;;12.70;90.40;;;;;;5014618;28;21027;-50
2023/10/28 00:23:18;;;;;;;2.23;0.90;;;12.70;90.40;;;;;;5004290;28;20477;-49
2023/10/28 00:25:47;;;;;;;1.77;0.87;;;12.70;90.50;;;;;;5013412;28;20545;-49
2023/10/28 00:28:16;;;;;;;1.20;0.77;;;12.70;90.40;;;;;;5029454;28;20893;-50
2023/10/28 00:30:44;;;;;;;1.40;0.80;;;12.70;90.30;;;;;;5032180;28;20479;-50
2023/10/28 00:33:13;;;;;;;1.40;1.10;;;12.70;90.20;;;;;;5021258;28;20904;-49
2023/10/28 00:35:42;;;;;;;1.67;1.17;;;12.70;90.10;;;;;;5013324;28;20475;-49
2023/10/28 00:38:12;;;;;;;1.40;0.73;;;12.70;90.20;;;;;;5003607;28;20486;-50
2023/10/28 00:40:43;;;;;;;1.67;0.80;;;12.70;90.10;;;;;;5007554;28;20448;-49
2023/10/28 00:43:12;;;;;;;1.77;1.00;;;12.70;90.10;;;;;;5021674;28;20843;-51
2023/10/28 00:45:40;;;;;;;1.50;0.90;;;12.70;90.20;;;;;;5007547;28;20539;-50
2023/10/28 00:48:09;;;;;;;1.93;1.03;;;12.70;90.30;;;;;;5009157;28;20517;-50
2023/10/28 00:50:37;;;;;;;1.50;0.80;;;12.70;90.40;;;;;;5007984;28;20507;-50
2023/10/28 00:53:06;;;;;;;1.33;0.73;;;12.70;90.20;;;;;;5003689;28;21005;-50
2023/10/28 00:55:35;;;;;;;1.70;1.10;;;12.70;90.10;;;;;;5007681;28;20468;-51
2023/10/28 00:58:05;;;;;;;2.23;1.13;;;12.70;90.10;;;;;;5008375;28;20872;-53
2023/10/28 01:00:35;;;;;;;2.90;1.00;;;12.70;90.00;;;;;;5004024;28;20458;-49
2023/10/28 01:03:04;;;;;;;1.60;1.00;;;12.70;90.20;;;;;;5006834;28;20550;-49
2023/10/28 01:05:34;;;;;;;2.07;1.30;;;12.70;90.10;;;;;;5007832;28;20465;-51
2023/10/28 01:08:02;;;;;;;2.20;0.97;;;12.70;90.00;;;;;;5002950;28;20500;-55
2023/10/28 01:10:33;;;;;;;1.50;1.00;;;12.70;90.10;;;;;;5007748;28;20449;-50
2023/10/28 01:13:04;;;;;;;2.73;1.10;;;12.70;90.00;;;;;;5010098;28;21043;-50
2023/10/28 01:15:32;;;;;;;1.93;1.23;;;12.70;90.00;;;;;;5007543;28;20903;-51
2023/10/28 01:18:01;;;;;;;1.90;1.20;;;12.70;90.00;;;;;;5023331;28;20503;-51
2023/10/28 01:20:29;;;;;;;2.03;0.90;;;12.70;90.20;;;;;;5006479;28;20493;-49
2023/10/28 01:22:59;;;;;;;2.30;1.00;;;12.70;90.00;;;;;;5006227;28;20476;-49
2023/10/28 01:25:28;;;;;;;2.50;0.80;;;12.70;90.20;;;;;;5008748;28;20448;-49
2023/10/28 01:27:56;;;;;;;1.73;0.83;;;12.70;90.10;;;;;;5007566;28;20554;-50
2023/10/28 01:30:26;;;;;;;1.83;0.73;;;12.70;90.20;;;;;;5013318;28;20435;-50
2023/10/28 01:32:56;;;;;;;1.33;0.73;;;12.70;90.10;;;;;;5005207;28;20506;-50
2023/10/28 01:35:25;;;;;;;1.40;1.00;;;12.70;90.10;;;;;;5023344;28;20483;-50
2023/10/28 01:37:53;;;;;;;2.47;0.90;;;12.70;90.10;;;;;;5002751;28;20579;-49
2023/10/28 01:40:24;;;;;;;1.90;0.77;;;12.70;90.10;;;;;;5016253;28;20468;-50
2023/10/28 01:42:52;;;;;;;1.43;0.80;;;12.70;90.00;;;;;;5025330;28;20562;-50
2023/10/28 01:45:21;;;;;;;2.20;0.90;;;12.70;90.10;;;;;;5011291;28;20449;-50
2023/10/28 01:47:49;;;;;;;1.40;0.87;;;12.70;90.20;;;;;;5007529;28;20471;-49
2023/10/28 01:50:20;;;;;;;1.37;0.80;;;12.70;90.20;;;;;;5014851;28;21000;-49
2023/10/28 01:52:48;;;;;;;1.70;0.90;;;12.70;90.10;;;;;;5003864;28;20486;-49
2023/10/28 01:55:17;;;;;;;1.20;0.83;;;12.70;90.00;;;;;;5019956;28;20509;-49
2023/10/28 01:57:47;;;;;;;1.77;0.70;;;12.70;90.20;;;;;;5007867;28;20466;-49
2023/10/28 02:00:17;;;;;;;1.87;1.10;;;12.70;90.20;;;;;;5008813;28;20440;-49
2023/10/28 02:02:46;;;;;;;1.20;0.63;;;12.70;90.20;;;;;;5005785;28;20853;-49
2023/10/28 02:05:15;;;;;;;1.83;0.63;;;12.70;90.10;;;;;;5009933;28;20541;-49
2023/10/28 02:07:44;;;;;;;1.10;0.60;;;12.70;90.10;;;;;;5021791;28;20518;-49
2023/10/28 02:10:12;;;;;;;1.90;0.73;;;12.70;90.20;;;;;;5024338;28;20435;-50
2023/10/28 02:12:42;;;;;;;1.63;0.70;;;12.70;90.10;;;;;;5007926;28;20837;-50
2023/10/28 02:15:13;;;;;;;1.77;0.70;;;12.70;90.10;;;;;;5014221;28;20901;-48
2023/10/28 02:17:41;;;;;;;1.70;0.70;;;12.70;90.10;;;;;;5008346;28;20467;-49
2023/10/28 02:20:13;;;;;;;1.47;0.70;;;12.70;90.10;;;;;;5014582;28;20437;-50
2023/10/28 02:22:42;;;;;;;1.13;0.73;;;12.70;90.00;;;;;;5008327;28;20509;-49
2023/10/28 02:25:10;;;;;;;1.20;0.60;;;12.60;90.10;;;;;;5013373;28;20570;-49
2023/10/28 02:27:39;;;;;;;1.30;0.80;;;12.60;90.10;;;;;;5013800;28;20486;-50
2023/10/28 02:30:11;;;;;;;1.10;0.60;;;12.70;90.20;;;;;;5030382;28;20435;-50
2023/10/28 02:32:43;;;;;;;1.17;0.60;;;12.70;90.10;;;;;;5011093;28;21074;-49
2023/10/28 02:35:12;;;;;;;1.23;0.60;;;12.60;90.30;;;;;;5014204;28;20947;-49
2023/10/28 02:37:40;;;;;;;1.00;0.60;;;12.60;90.10;;;;;;5009078;28;20885;-50
2023/10/28 02:40:09;;;;;;;1.50;0.70;;;12.60;90.10;;;;;;5013424;28;20885;-49
2023/10/28 02:42:38;;;;;;;2.60;0.97;;;12.60;90.10;;;;;;5012666;28;20478;-50
2023/10/28 02:45:09;;;;;;;2.20;0.90;;;12.60;90.00;;;;;;5033102;28;20452;-49
2023/10/28 02:47:38;;;;;;;1.30;0.80;;;12.60;90.00;;;;;;5010177;28;20529;-50
2023/10/28 02:50:09;;;;;;;1.30;0.60;;;12.60;90.00;;;;;;5012708;28;20437;-50
2023/10/28 02:52:37;;;;;;;1.10;0.50;;;12.60;90.00;;;;;;5010554;28;20464;-49
2023/10/28 02:55:07;;;;;;;1.20;0.70;;;12.70;90.00;;;;;;5015425;28;20451;-50
2023/10/28 02:57:35;;;;;;;1.57;0.77;;;12.60;90.00;;;;;;5011805;28;20505;-49
2023/10/28 03:00:06;;;;;;;1.10;0.83;;;12.60;89.90;;;;;;5012076;28;20847;-50
2023/10/28 03:02:34;;;;;;;1.77;0.63;;;12.60;89.90;;;;;;5016288;28;20514;-50
2023/10/28 03:05:04;;;;;;;1.00;0.50;;;12.60;90.00;;;;;;5033657;28;20484;-49
2023/10/28 03:07:34;;;;;;;1.23;0.57;;;12.60;89.80;;;;;;5021566;28;20496;-49
2023/10/28 03:10:02;;;;;;;1.30;0.50;;;12.60;89.70;;;;;;5023603;28;20431;-49
2023/10/28 03:12:31;;;;;;;1.27;0.80;;;12.60;89.60;;;;;;5013387;28;20460;-50
2023/10/28 03:15:00;;;;;;;1.30;0.67;;;12.60;89.60;;;;;;5034904;28;20472;-50
2023/10/28 03:17:28;;;;;;;1.40;0.70;;;12.60;89.80;;;;;;5009676;28;20510;-49
2023/10/28 03:19:57;;;;;;;1.47;0.70;;;12.60;89.70;;;;;;5014706;28;20545;-50
2023/10/28 03:22:25;;;;;;;1.10;0.70;;;12.60;89.60;;;;;;5031389;28;20459;-49
2023/10/28 03:24:55;;;;;;;1.10;0.60;;;12.60;89.50;;;;;;5013064;28;20884;-49
2023/10/28 03:27:23;;;;;;;1.27;0.80;;;12.60;89.70;;;;;;5032925;28;20839;-50
2023/10/28 03:29:52;;;;;;;1.40;0.63;;;12.60;89.50;;;;;;5013166;28;20462;-49
2023/10/28 03:32:20;;;;;;;1.70;0.93;;;12.60;89.50;;;;;;5031760;28;20480;-49
2023/10/28 03:34:49;;;;;;;1.23;0.70;;;12.60;89.70;;;;;;5031820;28;20470;-50
2023/10/28 03:37:17;;;;;;;1.20;0.73;;;12.60;89.50;;;;;;5011170;28;20550;-50
2023/10/28 03:39:46;;;;;;;2.33;0.60;;;12.60;89.40;;;;;;5010915;28;20441;-50
2023/10/28 03:42:15;;;;;;;1.87;0.87;;;12.60;89.60;;;;;;5024505;28;20467;-50
2023/10/28 03:44:44;;;;;;;1.20;0.73;;;12.60;89.40;;;;;;5013723;28;20460;-50
2023/10/28 03:47:12;;;;;;;1.23;0.60;;;12.60;89.40;;;;;;5010785;28;20441;-50
2023/10/28 03:49:40;;;;;;;1.03;0.70;;;12.60;89.30;;;;;;5011253;28;20431;-51
2023/10/28 03:52:10;;;;;;;1.20;0.50;;;12.60;89.30;;;;;;5032499;28;20479;-50
2023/10/28 03:54:38;;;;;;;1.20;0.70;;;12.60;89.50;;;;;;5012157;28;20480;-50
2023/10/28 03:57:07;;;;;;;1.60;0.80;;;12.60;89.30;;;;;;5023960;28;20488;-50
2023/10/28 03:59:39;;;;;;;1.40;0.83;;;12.60;89.30;;;;;;5024507;28;20800;-50
2023/10/28 04:02:08;;;;;;;1.47;0.70;;;12.60;89.40;;;;;;5023830;28;20440;-50
2023/10/28 04:04:36;;;;;;;1.13;0.60;;;12.60;89.20;;;;;;5021295;28;20457;-51
2023/10/28 04:07:04;;;;;;;1.50;0.60;;;12.60;89.30;;;;;;5013278;28;20549;-50
2023/10/28 04:09:33;;;;;;;0.93;0.43;;;12.60;89.40;;;;;;5037419;28;21008;-50
2023/10/28 04:12:01;;;;;;;1.03;0.50;;;12.60;89.30;;;;;;5021163;28;20441;-50
2023/10/28 04:14:29;;;;;;;1.67;0.60;;;12.60;89.30;;;;;;5024959;28;20515;-50
2023/10/28 04:16:59;;;;;;;1.30;0.60;;;12.60;89.30;;;;;;5009210;28;20967;-50
2023/10/28 04:19:27;;;;;;;1.60;0.80;;;12.60;89.30;;;;;;5026271;28;20452;-49
2023/10/28 04:21:55;;;;;;;1.40;0.70;;;12.60;89.50;;;;;;5011379;28;20488;-50
2023/10/28 04:24:25;;;;;;;1.20;0.90;;;12.50;89.40;;;;;;5022091;28;21315;-50
2023/10/28 04:26:54;;;;;;;1.10;0.67;;;12.60;89.40;;;;;;5012734;28;20851;-50
2023/10/28 04:29:22;;;;;;;2.40;0.87;;;12.60;89.50;;;;;;5016759;28;20427;-49
2023/10/28 04:31:50;;;;;;;1.83;0.77;;;12.60;89.70;;;;;;5026126;28;20467;-49
2023/10/28 04:34:20;;;;;;;1.63;0.70;;;12.60;89.50;;;;;;5019284;28;20531;-49
2023/10/28 04:36:48;;;;;;;1.60;0.80;;;12.50;89.40;;;;;;5022216;28;20961;-50
2023/10/28 04:39:17;;;;;;;1.67;0.70;;;12.60;89.60;;;;;;5007836;28;20482;-50
2023/10/28 04:41:45;;;;;;;1.70;0.80;;;12.50;89.30;;;;;;5010352;28;20464;-50
2023/10/28 04:44:13;;;;;;;1.20;0.80;;;12.50;89.40;;;;;;5036451;28;20474;-49
2023/10/28 04:46:41;;;;;;;1.20;0.77;;;12.50;89.30;;;;;;5027651;28;20790;-49
2023/10/28 04:49:11;;;;;;;1.77;0.90;;;12.60;89.70;;;;;;5011431;28;20703;-49
2023/10/28 04:51:40;;;;;;;1.00;0.50;;;12.50;89.30;;;;;;5008298;28;20542;-49
2023/10/28 04:54:09;;;;;;;1.10;0.73;;;12.60;89.40;;;;;;5011723;28;20992;-49
2023/10/28 04:56:38;;;;;;;1.50;0.90;;;12.60;89.20;;;;;;5024407;28;20812;-49
2023/10/28 04:59:07;;;;;;;1.40;0.70;;;12.60;89.10;;;;;;5007233;28;20523;-50
2023/10/28 05:01:35;;;;;;;1.10;0.53;;;12.60;89.10;;;;;;5005083;28;20454;-49
2023/10/28 05:04:03;;;;;;;2.00;0.80;;;12.60;89.10;;;;;;5017442;28;20991;-49
2023/10/28 05:06:31;;;;;;;1.20;0.60;;;12.60;89.20;;;;;;5024982;28;20468;-49
2023/10/28 05:09:01;;;;;;;1.33;0.70;;;12.60;89.30;;;;;;5009935;28;20444;-48
2023/10/28 05:11:29;;;;;;;1.20;0.70;;;12.50;89.60;;;;;;5025910;28;20957;-49
2023/10/28 05:13:57;;;;;;;1.40;0.80;;;12.50;89.40;;;;;;5008222;28;20429;-49
2023/10/28 05:16:26;;;;;;;1.10;0.50;;;12.50;89.70;;;;;;5015007;28;20461;-49
2023/10/28 05:18:54;;;;;;;1.43;0.63;;;12.50;89.40;;;;;;5010918;28;20486;-49
2023/10/28 05:21:22;;;;;;;3.90;0.77;;;12.50;89.60;;;;;;5005657;28;20420;-49
2023/10/28 05:23:51;;;;;;;2.40;1.00;;;12.50;89.80;;;;;;5020952;28;20886;-50
2023/10/28 05:26:21;;;;;;;2.93;0.70;;;12.50;89.80;;;;;;5013564;28;20468;-50
2023/10/28 05:28:53;;;;;;;1.47;0.73;;;12.50;90.00;;;;;;5024782;28;20466;-49
2023/10/28 05:31:22;;;;;;;1.63;0.70;;;12.50;90.00;;;;;;5010627;28;20437;-50
2023/10/28 05:33:50;;;;;;;2.07;0.80;;;12.40;89.80;;;;;;5006648;28;20460;-49
2023/10/28 05:36:19;;;;;;;1.30;0.53;;;12.50;89.80;;;;;;4998222;28;20476;-49
2023/10/28 05:38:47;;;;;;;1.83;0.90;;;12.50;89.90;;;;;;5006700;28;20542;-50
2023/10/28 05:41:15;;;;;;;2.23;0.80;;;12.40;89.70;;;;;;5008900;28;20519;-49
2023/10/28 05:43:45;;;;;;;2.80;0.73;;;12.40;89.70;;;;;;5005289;28;20471;-49
2023/10/28 05:46:14;;;;;;;1.60;0.93;;;12.40;89.90;;;;;;5023855;28;21505;-50
2023/10/28 05:48:42;;;;;;;1.30;0.80;;;12.40;90.00;;;;;;5006154;28;20494;-49
2023/10/28 05:51:11;;;;;;;2.40;0.90;;;12.40;89.90;;;;;;5011216;28;20520;-49
2023/10/28 05:53:40;;;;;;;1.70;0.70;;;12.40;89.90;;;;;;5018311;28;20483;-50
2023/10/28 05:56:08;;;;;;;1.23;0.60;;;12.40;89.80;;;;;;5010340;28;20546;-50
2023/10/28 05:58:37;;;;;;;1.50;0.70;;;12.40;89.80;;;;;;5017813;28;20472;-49
2023/10/28 06:01:07;;;;;;;1.27;0.70;;;12.40;89.70;;;;;;5018767;28;20446;-49
2023/10/28 06:03:38;;;;;;;1.60;0.60;;;12.40;89.60;;;;;;5009879;28;21051;-49
2023/10/28 06:06:07;;;;;;;1.77;0.83;;;12.40;89.50;;;;;;5008234;28;20451;-50
2023/10/28 06:08:35;;;;;;;1.87;0.63;;;12.40;89.50;;;;;;5018814;28;20892;-49
2023/10/28 06:11:04;;;;;;;1.20;0.60;;;12.40;89.50;;;;;;5014830;28;20486;-49
2023/10/28 06:13:32;;;;;;;2.50;0.83;;;12.40;89.50;;;;;;5009797;28;20806;-50
2023/10/28 06:16:00;;;;;;;2.00;0.90;;;12.40;89.60;;;;;;5011368;28;20980;-49
2023/10/28 06:18:30;;;;;;;1.67;0.80;;;12.40;89.70;;;;;;5025848;28;20979;-49
2023/10/28 06:20:58;;;;;;;3.10;0.70;;;12.40;89.80;;;;;;5019456;28;20450;-49
2023/10/28 06:23:26;;;;;;;1.00;0.50;;;12.40;89.90;;;;;;5020535;28;20528;-49
2023/10/28 06:25:55;;;;;;;1.50;0.80;;;12.40;89.80;;;;;;5015945;28;20488;-49
2023/10/28 06:28:24;;;;;;;1.43;0.60;;;12.40;90.00;;;;;;5033199;28;20572;-50
2023/10/28 06:30:53;;;;;;;3.80;0.77;;;12.40;90.00;;;;;;5010416;28;20443;-50
2023/10/28 06:33:22;;;;;;;1.17;0.70;;;12.40;90.00;;;;;;5019177;28;21194;-49
2023/10/28 06:35:52;;;;;;;1.50;0.80;;;12.40;90.00;;;;;;5011759;28;20467;-49
2023/10/28 06:38:20;;;;;;;1.53;0.90;;;12.40;90.00;;;;;;5009075;28;20472;-50
2023/10/28 06:40:49;;;;;;;1.73;0.67;;;12.40;90.10;;;;;;5028352;28;20546;-49
2023/10/28 06:43:17;;;;;;;1.97;0.70;;;12.40;90.10;;;;;;5022854;28;20472;-50
2023/10/28 06:45:45;;;;;;;2.30;0.93;;;12.40;90.10;;;;;;5020346;28;20471;-49
2023/10/28 06:48:15;;;;;;;1.50;0.80;;;12.40;90.10;;;;;;5028934;28;20800;-49
2023/10/28 06:50:44;;;;;;;1.20;0.73;;;12.40;90.10;;;;;;5030626;28;20531;-49
2023/10/28 06:53:14;;;;;;;1.87;0.60;;;12.40;90.20;;;;;;5013440;28;20738;-49
2023/10/28 06:55:42;;;;;;;1.23;0.57;;;12.40;90.10;;;;;;5011109;28;20455;-50
2023/10/28 06:58:10;;;;;;;1.00;0.50;;;12.40;90.20;;;;;;5012907;28;20456;-48
2023/10/28 07:00:39;;;;;;;1.20;0.80;;;12.40;90.20;;;;;;5011384;28;20980;-50
2023/10/28 07:03:07;;;;;;;1.47;0.67;;;12.40;90.20;;;;;;5011211;28;20553;-49
2023/10/28 07:05:38;;;;;;;1.30;0.60;;;12.40;90.30;;;;;;5014152;28;20457;-49
2023/10/28 07:08:06;;;;;;;1.10;0.80;;;12.40;90.30;;;;;;5013923;28;20772;-50
2023/10/28 07:10:37;;;;;;;1.37;0.63;;;12.40;90.40;;;;;;5010074;28;20445;-50
2023/10/28 07:13:05;;;;;;;1.80;0.90;;;12.30;90.30;;;;;;5021088;28;20494;-49
2023/10/28 07:15:34;;;;;;;1.47;0.50;;;12.40;90.50;;;;;;5010625;28;20458;-51
2023/10/28 07:18:02;;;;;;;2.30;1.07;;;12.30;90.40;;;;;;5009949;28;20555;-49
2023/10/28 07:20:31;;;;;;;2.17;0.77;;;12.40;90.50;;;;;;5009793;28;20437;-49
2023/10/28 07:22:59;;;;;;;2.77;0.80;;;12.40;91.40;;;;;;5009575;28;20229;-50
2023/10/28 07:25:27;;;;;;;2.40;0.73;;;12.40;91.20;;;;;;5021038;28;20483;-50
2023/10/28 07:27:57;;;;;;;1.83;0.80;;;12.40;91.00;;;;;;5011779;28;21015;-50
2023/10/28 07:30:25;;;;;;;1.90;1.03;;;12.40;91.10;;;;;;5020569;28;20819;-50
2023/10/28 07:32:53;;;;;;;3.90;1.83;;;12.40;91.20;;;;;;5028175;28;20619;-49
2023/10/28 07:35:22;;;;;;;2.90;1.10;;;12.40;91.20;;;;;;5007075;28;20472;-49
2023/10/28 07:37:50;;;;;;;1.00;0.77;;;12.40;91.30;;;;;;5009744;28;20482;-49
2023/10/28 07:40:18;;;;;;;2.10;1.07;;;12.40;91.20;;;;;;5029314;28;20769;-49
2023/10/28 07:42:48;;;;;;;1.67;0.97;;;12.40;91.30;;;;;;5031122;28;20464;-49
2023/10/28 07:45:17;;;;;;;1.50;0.90;;;12.40;91.20;;;;;;5016653;28;20455;-49
2023/10/28 07:47:47;;;;;;;1.60;0.60;;;12.30;91.20;;;;;;5013036;28;20563;-49
2023/10/28 07:50:15;;;;;;;1.60;0.80;;;12.40;91.30;;;;;;5015722;28;20553;-50
2023/10/28 07:52:44;;;;;;;1.50;0.60;;;12.30;91.20;;;;;;5010550;28;20468;-49
2023/10/28 07:55:13;;;;;;;1.40;0.70;;;12.40;91.40;;;;;;5017106;28;20455;-50
2023/10/28 07:57:43;;;;;;;2.20;0.83;;;12.40;91.40;;;;;;5010718;28;20476;-50
2023/10/28 08:00:13;;;;;;;1.57;0.83;;;12.30;91.40;;;;;;5033355;28;20463;-49
2023/10/28 08:02:45;;;;;;;1.30;0.80;;;12.30;91.40;;;;;;5006472;28;20464;-50
2023/10/28 08:05:15;;;;;;;1.30;1.00;;;12.30;91.40;;;;;;5032594;28;20571;-48
2023/10/28 08:07:43;;;;;;;1.50;0.80;;;12.30;91.50;;;;;;5009765;28;20467;-50
2023/10/28 08:10:12;;;;;;;1.97;1.00;;;12.30;91.50;;;;;;5016641;28;20523;-50
2023/10/28 08:12:40;;;;;;;2.60;0.90;;;12.30;91.40;;;;;;5029336;28;20527;-50
2023/10/28 08:15:09;;;;;;;2.27;0.80;;;12.30;91.60;;;;;;5016003;28;21008;-49
2023/10/28 08:17:37;;;;;;;2.00;0.90;;;12.30;91.40;;;;;;4978276;28;20543;-49
2023/10/28 08:20:08;;;;;;;3.50;1.20;;;12.30;91.40;;;;;;5024074;28;20554;-50
2023/10/28 08:22:37;;;;;;;3.50;0.93;;;12.40;91.20;;;;;;5019579;28;20445;-48
2023/10/28 08:25:10;;;;;;;1.47;0.80;;;12.40;91.10;;;;;;5026006;28;20843;-49
2023/10/28 08:27:39;;;;;;;3.70;0.80;;;12.40;91.30;;;;;;5018596;28;20570;-49
2023/10/28 08:30:08;;;;;;;1.60;1.00;;;12.40;91.10;;;;;;5018923;28;20451;-48
2023/10/28 08:32:38;;;;;;;1.90;0.80;;;12.30;91.00;;;;;;5015044;28;20451;-49
2023/10/28 08:35:09;;;;;;;2.83;1.40;;;12.40;90.80;;;;;;5004408;28;20479;-49
2023/10/28 08:37:37;;;;;;;3.43;0.87;;;12.40;93.30;;;;;;5013181;28;20535;-50
2023/10/28 08:40:11;;;;;;;2.77;0.97;;;12.40;92.90;;;;;;5024759;28;20479;-51
2023/10/28 08:42:40;;;;;;;3.37;1.37;;;12.40;92.60;;;;;;5009356;28;20484;-50
2023/10/28 08:45:10;;;;;;;2.20;1.10;;;12.50;92.50;;;;;;5020679;28;20749;-50
2023/10/28 08:47:39;;;;;;;2.60;1.20;;;12.50;92.30;;;;;;5008141;28;20843;-49
2023/10/28 08:50:10;;;;;;;2.27;1.23;;;12.50;91.90;;;;;;5008561;28;20518;-50
2023/10/28 08:52:40;;;;;;;1.73;0.90;;;12.50;91.70;;;;;;5013951;28;20934;-49
2023/10/28 08:55:10;;;;;;;2.60;1.10;;;12.50;91.50;;;;;;5013588;28;20480;-48
2023/10/28 08:57:43;;;;;;;1.60;0.73;;;12.50;91.10;;;;;;5019233;28;20477;-49
2023/10/28 09:00:15;;;;;;;2.80;0.97;;;12.60;91.10;;;;;;5026534;28;20471;-49
2023/10/28 09:02:46;;;;;;;4.43;0.83;;;12.60;90.90;;;;;;5007963;28;20546;-49
2023/10/28 09:05:17;;;;;;;3.10;1.70;;;12.60;90.70;;;;;;5008223;28;20478;-50
2023/10/28 09:07:46;;;;;;;1.93;1.03;;;12.60;90.70;;;;;;5002041;28;20467;-48
2023/10/28 09:10:16;;;;;;;1.70;0.90;;;12.70;90.50;;;;;;5025984;28;20455;-50
2023/10/28 09:12:45;;;;;;;2.30;0.83;;;12.70;90.30;;;;;;5009936;28;21215;-49
2023/10/28 09:15:13;;;;;;;2.30;1.60;;;12.70;90.20;;;;;;4995696;28;20461;-49
2023/10/28 09:17:42;;;;;;;1.50;0.87;;;12.80;90.10;;;;;;5020572;28;20480;-50
2023/10/28 09:20:11;;;;;;;1.47;0.90;;;12.80;90.00;;;;;;5028890;28;20479;-49
2023/10/28 09:22:44;;;;;;;2.37;0.93;;;12.80;89.70;;;;;;5000810;28;20484;-49
2023/10/28 09:25:14;;;;;;;1.50;0.70;;;12.90;90.00;;;;;;5020299;28;20565;-49
2023/10/28 09:27:43;;;;;;;1.53;0.70;;;12.80;90.70;;;;;;5025068;28;20515;-49
2023/10/28 09:30:12;;;;;;;2.23;1.07;;;12.90;90.10;;;;;;4997495;28;21155;-49
2023/10/28 09:32:41;;;;;;;1.40;0.77;;;12.90;89.90;;;;;;5006811;28;20475;-49
2023/10/28 09:35:11;;;;;;;1.77;0.97;;;12.90;89.50;;;;;;5012092;28;20559;-50
2023/10/28 09:37:41;;;;;;;1.53;0.80;;;12.90;89.20;;;;;;5017218;28;21319;-50
2023/10/28 09:40:12;;;;;;;1.33;0.87;;;12.90;89.00;;;;;;5012252;28;20461;-49
2023/10/28 09:42:43;;;;;;;1.57;0.73;;;13.00;89.00;;;;;;5019191;28;20542;-49
2023/10/28 09:45:12;;;;;;;2.30;0.80;;;13.00;88.80;;;;;;4991831;28;20454;-49
2023/10/28 09:47:49;;;;;;;2.47;1.00;;;13.00;88.60;;;;;;4999139;28;20538;-49
2023/10/28 09:50:22;;;;;;;1.60;0.90;;;13.00;88.70;;;;;;5011520;28;20433;-49
2023/10/28 09:52:53;;;;;;;2.70;1.53;;;13.00;88.60;;;;;;5010629;28;20477;-49
2023/10/28 09:55:26;;;;;;;1.97;0.90;;;13.00;88.50;;;;;;5006328;28;20892;-49
2023/10/28 09:58:01;;;;;;;2.63;0.73;;;13.00;88.60;;;;;;5006743;28;21074;-49
2023/10/28 10:00:33;;;;;;;1.40;0.70;;;13.00;88.40;;;;;;5005273;28;20463;-49
2023/10/28 10:03:11;;;;;;;1.57;0.80;;;13.00;88.30;;;;;;5005374;28;20462;-49
2023/10/28 10:05:43;;;;;;;2.17;1.07;;;13.00;88.00;;;;;;5006401;28;20489;-49
2023/10/28 10:08:19;;;;;;;1.13;0.73;;;13.00;87.90;;;;;;5020958;28;20478;-52
2023/10/28 10:10:49;;;;;;;2.10;1.00;;;13.10;87.80;;;;;;5010164;28;20956;-49
2023/10/28 10:13:17;;;;;;;1.93;0.90;;;13.10;87.70;;;;;;5014342;28;20591;-49
2023/10/28 10:15:54;;;;;;;1.77;0.83;;;13.10;87.70;;;;;;5004452;28;20553;-49
2023/10/28 10:18:33;;;;;;;1.77;0.90;;;13.10;87.40;;;;;;5004808;28;20476;-50
2023/10/28 10:21:05;;;;;;;2.67;0.67;;;13.10;87.40;;;;;;5005336;28;20714;-49
2023/10/28 10:23:43;;;;;;;1.83;0.70;;;13.10;87.10;;;;;;5016183;28;20814;-49
2023/10/28 10:26:23;;;;;;;1.43;0.57;;;13.10;86.30;;;;;;5022159;28;20509;-50
2023/10/28 10:28:53;;;;;;;1.90;0.80;;;13.20;86.50;;;;;;5015284;28;20973;-50
2023/10/28 10:31:24;;;;;;;1.20;0.80;;;13.20;86.50;;;;;;5011599;28;20502;-49
2023/10/28 10:34:03;;;;;;;3.40;1.20;;;13.20;86.40;;;;;;5011131;28;20477;-50
2023/10/28 10:36:36;;;;;;;1.93;0.90;;;13.20;86.50;;;;;;5014072;28;20466;-48
2023/10/28 10:39:14;;;;;;;4.47;1.53;;;13.20;86.50;;;;;;5006506;28;20457;-49
2023/10/28 10:41:48;;;;;;;8.00;1.80;;;13.20;86.40;;;;;;5010662;28;20550;-50
2023/10/28 10:44:33;;;;;;;2.23;0.90;;;13.30;86.60;;;;;;5022100;28;20489;-49
2023/10/28 10:47:04;;;;;;;5.43;1.60;;;13.30;86.60;;;;;;5012535;28;20800;-49
2023/10/28 10:49:33;;;;;;;3.27;0.97;;;13.30;86.60;;;;;;5020927;28;20512;-50
2023/10/28 10:52:01;;;;;;;5.57;1.07;;;13.30;86.50;;;;;;5003599;28;20438;-49
2023/10/28 10:54:31;;;;;;;3.50;1.30;;;13.30;86.60;;;;;;5007306;28;20440;-49
2023/10/28 10:57:02;;;;;;;1.70;0.80;;;13.30;86.50;;;;;;5031462;28;20993;-49
2023/10/28 10:59:33;;;;;;;3.40;1.10;;;13.30;86.10;;;;;;5018728;28;20464;-49
2023/10/28 11:02:02;;;;;;;2.70;1.00;;;13.30;85.80;;;;;;5020674;28;20826;-50
2023/10/28 11:49:37;;;;;;;3.00;1.37;;;13.10;88.00;;;;;;5199752;23;20496;-47
2023/10/28 11:52:06;;;;;;;2.43;1.13;;;13.10;88.50;;;;;;5027719;28;20523;-47
2023/10/28 11:54:34;;;;;;;3.10;1.27;;;13.00;88.40;;;;;;5011049;28;20538;-47
2023/10/28 11:57:02;;;;;;;4.43;1.20;;;13.00;88.60;;;;;;5028254;28;20833;-47
2023/10/28 11:59:30;;;;;;;3.30;1.43;;;13.00;88.70;;;;;;5028309;28;20444;-47
2023/10/28 12:01:59;;;;;;;5.03;1.20;;;13.00;88.90;;;;;;5024363;28;20474;-48
2023/10/28 12:04:27;;;;;;;4.17;1.10;;;13.00;89.00;;;;;;5028335;28;20459;-48
2023/10/28 12:06:57;;;;;;;6.63;1.00;;;12.90;89.30;;;;;;5029702;28;20452;-48
2023/10/28 12:09:27;;;;;;;3.33;1.47;;;12.90;89.10;;;;;;5027326;28;20475;-47
2023/10/28 12:11:55;;;;;;;4.60;1.70;;;12.90;89.30;;;;;;5028272;28;20592;-53
2023/10/28 12:14:24;;;;;;;3.60;1.10;;;12.90;89.40;;;;;;5025547;28;20445;-44
2023/10/28 12:16:52;;;;;;;3.30;1.23;;;12.90;89.20;;;;;;5010648;28;20481;-44
2023/10/28 12:19:20;;;;;;;2.70;0.97;;;12.90;89.10;;;;;;5028424;28;20466;-47
2023/10/28 12:21:49;;;;;;;2.30;1.13;;;12.90;89.30;;;;;;5026566;28;20475;-47
2023/10/28 12:24:18;;;;;;;3.93;1.60;;;12.90;89.10;;;;;;5025806;28;20444;-46
2023/10/28 12:27:05;;;;;;;9.73;1.53;;;12.90;89.00;;;;;;5028685;28;20467;-47
2023/10/28 12:29:52;;;;;;;2.70;1.43;;;12.90;89.20;;;;;;5023715;28;20568;-47
2023/10/28 12:32:36;;;;;;;4.93;1.43;;;;;;;;;;5026035;28;20467;-48
2023/10/28 12:35:08;;;;;;;5.60;1.13;;;12.90;88.10;;;;;;5026048;28;20467;-47
2023/10/28 12:37:38;;;;;;;3.27;1.20;;;12.90;89.40;;;;;;5027252;28;20500;-48
2023/10/28 12:40:10;;;;;;;2.90;1.20;;;12.90;89.10;;;;;;5026780;28;20444;-47
2023/10/28 12:42:43;;;;;;;1.53;1.00;;;12.90;89.40;;;;;;5025846;28;20475;-47
2023/10/28 12:45:14;;;;;;;2.20;1.00;;;12.90;89.40;;;;;;5028141;28;20492;-47
2023/10/28 12:47:45;;;;;;;2.03;0.70;;;12.90;89.20;;;;;;5030050;28;20546;-47
2023/10/28 12:50:17;;;;;;;3.43;1.30;;;12.90;90.10;;;;;;5025717;28;20478;-47
2023/10/28 12:52:45;;;;;;;2.63;0.80;;;12.90;89.00;;;;;;5024222;28;20482;-47
2023/10/28 12:55:15;;;;;;;3.13;1.23;;;12.90;89.20;;;;;;5026944;28;20460;-46
2023/10/28 12:57:43;;;;;;;1.97;0.90;;;12.90;89.40;;;;;;5027272;28;20464;-47
2023/10/28 13:00:14;;;;;;;3.23;0.80;;;12.90;89.30;;;;;;5022688;28;20479;-47
2023/10/28 13:02:44;;;;;;;2.43;0.93;;;12.90;89.40;;;;;;5027018;28;20471;-46
2023/10/28 13:05:12;;;;;;;1.93;0.93;;;12.90;89.30;;;;;;5028713;28;20469;-47
2023/10/28 13:07:41;;;;;;;2.83;1.37;;;12.90;89.30;;;;;;5023536;28;20460;-47
2023/10/28 13:10:11;;;;;;;1.90;0.60;;;12.90;89.20;;;;;;5022651;28;20560;-48
2023/10/28 13:12:40;;;;;;;4.90;1.00;;;12.90;89.20;;;;;;5025028;28;21008;-48
2023/10/28 13:15:09;;;;;;;1.53;0.83;;;12.90;89.60;;;;;;5025991;28;20466;-47
2023/10/28 13:17:39;;;;;;;2.37;0.90;;;12.90;89.70;;;;;;5028949;28;20472;-47
2023/10/28 13:20:10;;;;;;;2.93;0.90;;;12.90;89.80;;;;;;5026995;28;21140;-46
2023/10/28 13:22:38;;;;;;;2.60;1.03;;;12.90;89.80;;;;;;5026808;28;20867;-46
2023/10/28 13:25:08;;;;;;;2.60;1.10;;;12.90;89.40;;;;;;5028882;28;20466;-46
2023/10/28 13:27:37;;;;;;;2.40;1.10;;;12.90;89.40;;;;;;5030229;28;20468;-46
2023/10/28 13:30:08;;;;;;;1.90;0.97;;;12.90;89.50;;;;;;5027855;28;20435;-46
2023/10/28 13:32:36;;;;;;;1.80;0.83;;;12.80;89.80;;;;;;5026229;28;20475;-46
2023/10/28 13:35:21;;;;;;;1.50;0.90;;;12.90;89.70;;;;;;5026430;28;20448;-46
2023/10/28 13:37:50;;;;;;;2.93;0.90;;;12.90;89.50;;;;;;5027053;28;20473;-46
2023/10/28 13:40:19;;;;;;;2.03;0.80;;;12.90;89.90;;;;;;5025642;28;20997;-47
2023/10/28 13:42:47;;;;;;;2.00;0.67;;;12.90;89.80;;;;;;5024005;28;20467;-47
2023/10/28 13:45:18;;;;;;;1.87;0.93;;;12.90;89.90;;;;;;5027879;28;20458;-46